createdAt,value
2018-12-02T00:00:47.170Z,20.70
2018-12-02T00:03:15.896Z,20.70
2018-12-02T00:05:44.634Z,20.70
2018-12-02T00:08:13.412Z,20.60
2018-12-02T00:10:42.158Z,20.70
2018-12-02T00:15:40.350Z,20.70
2018-12-02T00:18:11.261Z,20.70
2018-12-02T00:20:40.184Z,20.70
2018-12-02T00:23:09.662Z,20.70
2018-12-02T00:25:38.377Z,20.80
2018-12-02T00:28:08.260Z,20.80
2018-12-02T00:30:37.028Z,20.80
2018-12-02T00:33:06.575Z,20.80
2018-12-02T00:35:35.376Z,20.80
2018-12-02T00:38:05.667Z,20.80
2018-12-02T00:40:35.021Z,20.90
2018-12-02T00:43:03.835Z,20.90
2018-12-02T00:45:33.652Z,20.90
2018-12-02T00:48:04.527Z,20.90
2018-12-02T00:50:33.359Z,20.90
2018-12-02T00:53:05.081Z,20.90
2018-12-02T00:55:36.301Z,20.90
2018-12-02T00:58:05.182Z,20.90
2018-12-02T01:00:35.970Z,20.80
2018-12-02T01:03:05.618Z,20.80
2018-12-02T01:05:34.377Z,20.80
2018-12-02T01:08:03.117Z,20.70
2018-12-02T01:10:31.925Z,20.70
2018-12-02T01:13:00.744Z,20.50
2018-12-02T01:15:31.135Z,20.30
2018-12-02T01:17:59.981Z,20.30
2018-12-02T01:20:28.673Z,20.20
2018-12-02T01:22:57.400Z,20.10
2018-12-02T01:25:26.138Z,20.00
2018-12-02T01:27:54.854Z,20.00
2018-12-02T01:30:24.507Z,19.80
2018-12-02T01:32:56.398Z,19.80
2018-12-02T01:35:25.062Z,19.80
2018-12-02T01:37:53.783Z,19.80
2018-12-02T01:40:23.646Z,19.80
2018-12-02T01:42:54.037Z,19.80
2018-12-02T01:45:23.772Z,19.80
2018-12-02T01:47:53.252Z,19.80
2018-12-02T01:50:25.489Z,19.80
2018-12-02T01:52:56.188Z,19.80
2018-12-02T01:55:24.890Z,19.80
2018-12-02T01:57:53.575Z,19.80
2018-12-02T02:02:51.495Z,19.80
2018-12-02T02:05:22.947Z,19.80
2018-12-02T02:07:51.657Z,19.80
2018-12-02T02:10:24.617Z,19.80
2018-12-02T02:12:53.337Z,19.80
2018-12-02T02:15:22.039Z,19.80
2018-12-02T02:17:50.747Z,19.80
2018-12-02T02:20:20.430Z,19.80
2018-12-02T02:22:49.118Z,19.80
2018-12-02T02:25:18.697Z,19.80
2018-12-02T02:28:04.720Z,19.80
2018-12-02T02:30:33.434Z,19.80
2018-12-02T02:33:02.148Z,19.70
2018-12-02T02:35:30.807Z,19.70
2018-12-02T02:37:59.522Z,19.70
2018-12-02T02:40:29.821Z,19.70
2018-12-02T02:42:58.547Z,19.70
2018-12-02T02:45:27.315Z,19.70
2018-12-02T02:47:56.036Z,19.70
2018-12-02T02:50:25.755Z,19.70
2018-12-02T02:52:57.322Z,19.70
2018-12-02T02:55:26.179Z,19.60
2018-12-02T02:57:55.642Z,19.60
2018-12-02T03:00:25.410Z,19.60
2018-12-02T03:02:54.182Z,19.60
2018-12-02T03:05:22.914Z,19.60
2018-12-02T03:07:51.666Z,19.60
2018-12-02T03:10:21.184Z,19.60
2018-12-02T03:12:53.024Z,19.60
2018-12-02T03:15:22.332Z,19.60
2018-12-02T03:17:51.024Z,19.60
2018-12-02T03:20:21.461Z,19.60
2018-12-02T03:22:53.166Z,19.60
2018-12-02T03:25:23.302Z,19.60
2018-12-02T03:27:52.125Z,19.60
2018-12-02T03:30:22.560Z,19.70
2018-12-02T03:32:51.300Z,19.70
2018-12-02T03:35:24.711Z,19.70
2018-12-02T03:37:54.624Z,19.60
2018-12-02T03:40:26.179Z,19.60
2018-12-02T03:42:55.639Z,19.60
2018-12-02T03:45:27.449Z,19.60
2018-12-02T03:47:56.591Z,19.70
2018-12-02T03:50:26.279Z,19.70
2018-12-02T03:52:55.787Z,19.60
2018-12-02T03:55:24.949Z,19.60
2018-12-02T03:57:54.702Z,19.60
2018-12-02T04:00:25.553Z,19.60
2018-12-02T04:02:55.122Z,19.60
2018-12-02T04:05:25.007Z,19.60
2018-12-02T04:07:53.849Z,19.60
2018-12-02T04:10:22.568Z,19.60
2018-12-02T04:12:52.010Z,19.60
2018-12-02T04:15:23.512Z,19.60
2018-12-02T04:17:52.227Z,19.60
2018-12-02T04:20:21.289Z,19.60
2018-12-02T04:22:50.854Z,19.60
2018-12-02T04:25:21.690Z,19.60
2018-12-02T04:27:50.391Z,19.60
2018-12-02T04:30:19.766Z,19.60
2018-12-02T04:32:51.069Z,19.60
2018-12-02T04:35:25.565Z,19.60
2018-12-02T04:37:54.312Z,19.60
2018-12-02T04:40:22.979Z,19.60
2018-12-02T04:42:51.681Z,19.60
2018-12-02T04:45:20.596Z,19.60
2018-12-02T04:47:49.589Z,19.60
2018-12-02T04:50:19.358Z,19.60
2018-12-02T04:52:48.222Z,19.60
2018-12-02T04:55:16.918Z,19.60
2018-12-02T04:57:45.611Z,19.60
2018-12-02T05:00:15.883Z,19.60
2018-12-02T05:02:46.465Z,19.60
2018-12-02T05:05:17.222Z,19.60
2018-12-02T05:07:45.894Z,19.70
2018-12-02T05:10:15.568Z,19.60
2018-12-02T05:12:44.406Z,19.60
2018-12-02T05:15:14.917Z,19.60
2018-12-02T05:17:43.655Z,19.60
2018-12-02T05:20:15.019Z,19.60
2018-12-02T05:22:43.724Z,19.60
2018-12-02T05:25:17.500Z,19.60
2018-12-02T05:27:42.753Z,19.60
2018-12-02T05:30:15.443Z,19.60
2018-12-02T05:32:44.825Z,19.60
2018-12-02T05:35:14.276Z,19.60
2018-12-02T05:37:42.919Z,19.60
2018-12-02T05:40:13.416Z,19.60
2018-12-02T05:42:42.192Z,19.60
2018-12-02T05:45:11.865Z,19.60
2018-12-02T05:47:40.574Z,19.60
2018-12-02T05:50:14.420Z,19.60
2018-12-02T05:52:43.174Z,19.60
2018-12-02T05:55:13.102Z,19.60
2018-12-02T05:57:41.846Z,19.50
2018-12-02T06:00:13.673Z,19.50
2018-12-02T06:02:42.367Z,19.50
2018-12-02T06:05:11.752Z,19.50
2018-12-02T06:07:40.438Z,19.50
2018-12-02T06:10:15.999Z,19.50
2018-12-02T06:12:44.695Z,19.50
2018-12-02T06:15:16.009Z,19.50
2018-12-02T06:17:44.697Z,19.60
2018-12-02T06:20:21.304Z,19.60
2018-12-02T06:22:50.750Z,19.60
2018-12-02T06:25:19.443Z,19.60
2018-12-02T06:27:48.141Z,19.60
2018-12-02T06:30:25.263Z,19.60
2018-12-02T06:32:56.095Z,19.60
2018-12-02T06:35:24.822Z,19.60
2018-12-02T06:37:54.747Z,19.70
2018-12-02T06:40:25.124Z,19.70
2018-12-02T06:42:53.850Z,19.80
2018-12-02T06:45:22.674Z,19.80
2018-12-02T06:47:51.339Z,19.80
2018-12-02T06:50:21.102Z,19.70
2018-12-02T06:52:49.833Z,19.70
2018-12-02T06:55:25.427Z,19.70
2018-12-02T06:58:11.982Z,19.70
2018-12-02T07:00:56.810Z,19.70
2018-12-02T07:03:32.588Z,19.60
2018-12-02T07:06:01.382Z,19.70
2018-12-02T07:08:30.105Z,19.60
2018-12-02T07:10:58.837Z,19.60
2018-12-02T07:13:27.541Z,19.60
2018-12-02T07:15:56.230Z,19.60
2018-12-02T07:18:29.115Z,19.60
2018-12-02T07:21:00.771Z,19.60
2018-12-02T07:23:33.842Z,19.60
2018-12-02T07:26:04.606Z,19.60
2018-12-02T07:28:33.318Z,19.60
2018-12-02T07:31:02.038Z,19.60
2018-12-02T07:33:31.630Z,19.60
2018-12-02T07:36:30.715Z,19.60
2018-12-02T07:39:23.443Z,19.60
2018-12-02T07:41:52.162Z,19.60
2018-12-02T07:44:21.734Z,19.60
2018-12-02T07:46:50.522Z,19.60
2018-12-02T07:49:19.200Z,19.60
2018-12-02T07:51:47.906Z,19.60
2018-12-02T07:54:16.967Z,19.60
2018-12-02T07:56:45.698Z,19.60
2018-12-02T07:59:14.395Z,19.60
2018-12-02T08:01:43.718Z,19.60
2018-12-02T08:04:12.440Z,19.60
2018-12-02T08:06:41.157Z,19.70
2018-12-02T08:09:09.859Z,19.70
2018-12-02T08:11:38.610Z,19.70
2018-12-02T08:14:07.279Z,19.70
2018-12-02T08:16:36.033Z,19.70
2018-12-02T08:19:04.929Z,19.70
2018-12-02T08:21:33.691Z,19.70
2018-12-02T08:24:02.370Z,19.70
2018-12-02T08:26:32.055Z,19.70
2018-12-02T08:29:00.735Z,19.70
2018-12-02T08:31:29.425Z,19.70
2018-12-02T08:33:58.149Z,19.70
2018-12-02T08:36:26.890Z,19.70
2018-12-02T08:38:56.532Z,19.70
2018-12-02T08:41:26.476Z,19.70
2018-12-02T08:46:23.505Z,19.70
2018-12-02T08:48:53.247Z,19.70
2018-12-02T08:51:20.922Z,19.70
2018-12-02T08:53:49.646Z,19.60
2018-12-02T08:56:18.335Z,19.70
2018-12-02T08:58:47.037Z,19.60
2018-12-02T09:01:15.743Z,19.60
2018-12-02T09:03:44.467Z,19.70
2018-12-02T09:06:13.347Z,19.60
2018-12-02T09:08:41.998Z,19.60
2018-12-02T09:11:10.685Z,19.70
2018-12-02T09:13:39.361Z,19.70
2018-12-02T09:16:08.041Z,19.60
2018-12-02T09:18:36.804Z,19.60
2018-12-02T09:21:05.859Z,19.60
2018-12-02T09:23:34.541Z,19.60
2018-12-02T09:26:03.283Z,19.60
2018-12-02T09:28:32.018Z,19.60
2018-12-02T09:31:01.250Z,19.60
2018-12-02T09:33:29.975Z,19.60
2018-12-02T09:35:58.693Z,19.50
2018-12-02T09:38:27.404Z,19.50
2018-12-02T09:40:56.233Z,19.60
2018-12-02T09:43:24.967Z,19.60
2018-12-02T09:45:53.666Z,19.60
2018-12-02T09:48:22.335Z,19.60
2018-12-02T09:50:51.042Z,19.60
2018-12-02T09:53:19.841Z,19.60
2018-12-02T09:55:51.812Z,19.60
2018-12-02T09:58:27.833Z,19.70
2018-12-02T10:01:00.346Z,19.70
2018-12-02T10:03:29.088Z,19.70
2018-12-02T10:05:57.818Z,19.70
2018-12-02T10:08:26.565Z,19.70
2018-12-02T10:10:55.283Z,19.70
2018-12-02T10:13:24.376Z,19.70
2018-12-02T10:15:56.833Z,19.70
2018-12-02T10:18:26.370Z,19.70
2018-12-02T10:20:55.191Z,19.70
2018-12-02T10:23:23.891Z,19.70
2018-12-02T10:25:52.703Z,19.80
2018-12-02T10:28:21.411Z,19.70
2018-12-02T10:35:46.787Z,19.70
2018-12-02T10:38:15.558Z,19.70
2018-12-02T10:40:44.262Z,19.70
2018-12-02T10:43:12.956Z,19.70
2018-12-02T10:48:11.150Z,19.70
2018-12-02T10:53:12.552Z,19.70
2018-12-02T10:55:49.596Z,19.70
2018-12-02T10:58:23.515Z,19.70
2018-12-02T11:00:58.687Z,19.70
2018-12-02T11:03:27.408Z,19.70
2018-12-02T11:05:56.083Z,19.50
2018-12-02T11:08:27.037Z,19.50
2018-12-02T11:10:55.757Z,19.40
2018-12-02T11:13:24.443Z,19.40
2018-12-02T11:15:53.098Z,19.30
2018-12-02T11:18:21.844Z,19.30
2018-12-02T11:20:50.502Z,19.20
2018-12-02T11:23:19.279Z,19.20
2018-12-02T11:25:48.001Z,19.20
2018-12-02T11:28:16.807Z,19.20
2018-12-02T11:30:45.548Z,19.30
2018-12-02T11:33:14.315Z,19.30
2018-12-02T11:35:43.019Z,19.30
2018-12-02T11:38:11.906Z,19.30
2018-12-02T11:40:41.897Z,19.20
2018-12-02T11:43:10.811Z,19.20
2018-12-02T11:45:39.470Z,19.10
2018-12-02T11:48:09.115Z,19.20
2018-12-02T11:50:38.356Z,19.10
2018-12-02T11:53:07.544Z,19.10
2018-12-02T11:55:36.211Z,19.00
2018-12-02T11:58:05.054Z,18.90
2018-12-02T12:00:35.237Z,18.90
2018-12-02T12:03:04.241Z,18.80
2018-12-02T12:05:32.948Z,18.80
2018-12-02T12:08:01.779Z,18.90
2018-12-02T12:10:30.529Z,19.20
2018-12-02T12:13:00.378Z,19.40
2018-12-02T12:15:30.068Z,19.40
2018-12-02T12:17:59.510Z,19.70
2018-12-02T12:20:33.315Z,19.80
2018-12-02T12:23:02.088Z,19.80
2018-12-02T12:25:30.886Z,19.90
2018-12-02T12:27:59.905Z,20.00
2018-12-02T12:30:29.970Z,20.10
2018-12-02T12:32:58.713Z,20.10
2018-12-02T12:35:27.546Z,20.10
2018-12-02T12:37:56.291Z,20.10
2018-12-02T12:40:27.239Z,20.10
2018-12-02T12:43:07.414Z,20.20
2018-12-02T12:45:36.098Z,20.20
2018-12-02T12:48:04.863Z,20.20
2018-12-02T12:50:33.571Z,20.20
2018-12-02T12:53:02.268Z,20.20
2018-12-02T12:55:30.975Z,20.30
2018-12-02T12:57:59.663Z,20.30
2018-12-02T13:00:28.438Z,20.20
2018-12-02T13:02:57.154Z,20.20
2018-12-02T13:05:26.677Z,20.20
2018-12-02T13:07:55.881Z,20.20
2018-12-02T13:10:24.545Z,20.20
2018-12-02T13:12:53.275Z,20.10
2018-12-02T13:15:22.897Z,20.10
2018-12-02T13:18:01.262Z,20.10
2018-12-02T13:20:48.275Z,20.10
2018-12-02T13:23:16.997Z,20.00
2018-12-02T13:25:45.717Z,20.00
2018-12-02T13:28:14.398Z,20.00
2018-12-02T13:30:44.078Z,19.90
2018-12-02T13:33:12.836Z,19.90
2018-12-02T13:35:41.775Z,19.90
2018-12-02T13:38:10.459Z,19.90
2018-12-02T13:40:40.413Z,19.90
2018-12-02T13:43:11.083Z,19.80
2018-12-02T13:45:39.824Z,19.80
2018-12-02T13:48:08.558Z,19.90
2018-12-02T13:50:37.313Z,19.90
2018-12-02T13:53:07.040Z,19.90
2018-12-02T13:55:36.326Z,20.00
2018-12-02T13:58:05.366Z,20.00
2018-12-02T14:00:34.121Z,20.10
2018-12-02T14:03:04.115Z,20.20
2018-12-02T14:05:32.865Z,20.20
2018-12-02T14:08:01.607Z,20.20
2018-12-02T14:10:30.327Z,20.30
2018-12-02T14:13:02.433Z,20.30
2018-12-02T14:15:37.626Z,20.30
2018-12-02T14:18:45.330Z,20.20
2018-12-02T14:21:14.026Z,20.10
2018-12-02T14:23:43.734Z,19.80
2018-12-02T14:26:15.633Z,19.90
2018-12-02T14:28:51.427Z,19.90
2018-12-02T14:31:20.330Z,20.00
2018-12-02T14:33:49.075Z,20.10
2018-12-02T14:36:17.796Z,20.20
2018-12-02T14:38:46.675Z,20.20
2018-12-02T14:41:15.384Z,20.00
2018-12-02T14:43:44.043Z,20.00
2018-12-02T14:46:12.695Z,19.90
2018-12-02T14:51:10.633Z,19.80
2018-12-02T14:53:40.809Z,19.80
2018-12-02T14:56:10.594Z,19.80
2018-12-02T14:58:39.262Z,19.80
2018-12-02T15:01:07.911Z,19.80
2018-12-02T15:03:36.585Z,19.80
2018-12-02T15:06:05.776Z,19.80
2018-12-02T15:08:34.451Z,19.80
2018-12-02T15:11:03.135Z,19.70
2018-12-02T15:13:31.858Z,19.70
2018-12-02T15:16:00.706Z,19.70
2018-12-02T15:18:29.400Z,19.70
2018-12-02T15:20:58.432Z,19.60
2018-12-02T15:23:26.841Z,19.60
2018-12-02T15:25:55.619Z,19.60
2018-12-02T15:28:25.017Z,19.60
2018-12-02T15:30:53.926Z,19.60
2018-12-02T15:33:22.970Z,19.50
2018-12-02T15:35:51.636Z,19.50
2018-12-02T15:38:20.330Z,19.50
2018-12-02T15:40:49.174Z,19.50
2018-12-02T15:43:17.870Z,19.50
2018-12-02T15:45:46.530Z,19.50
2018-12-02T15:48:15.206Z,19.50
2018-12-02T15:50:43.921Z,19.50
2018-12-02T15:53:12.607Z,19.60
2018-12-02T15:55:41.311Z,19.90
2018-12-02T15:58:12.762Z,19.90
2018-12-02T16:00:44.041Z,20.10
2018-12-02T16:03:12.737Z,20.10
2018-12-02T16:05:41.455Z,20.20
2018-12-02T16:08:10.187Z,20.20
2018-12-02T16:10:38.895Z,20.20
2018-12-02T16:13:09.845Z,20.20
2018-12-02T16:15:38.558Z,20.20
2018-12-02T16:18:10.307Z,20.30
2018-12-02T16:20:47.485Z,20.50
2018-12-02T16:23:21.157Z,20.50
2018-12-02T16:25:50.038Z,20.60
2018-12-02T16:28:18.834Z,20.70
2018-12-02T16:30:48.613Z,20.70
2018-12-02T16:33:17.372Z,20.70
2018-12-02T16:35:46.086Z,20.70
2018-12-02T16:38:14.736Z,20.70
2018-12-02T16:40:43.448Z,20.70
2018-12-02T16:43:12.273Z,20.80
2018-12-02T16:45:41.168Z,20.80
2018-12-02T16:48:11.046Z,20.80
2018-12-02T16:50:44.236Z,20.80
2018-12-02T16:53:15.660Z,21.00
2018-12-02T16:55:53.708Z,21.00
2018-12-02T16:58:43.926Z,21.00
2018-12-02T17:01:17.110Z,21.10
2018-12-02T17:03:45.821Z,21.20
2018-12-02T17:06:14.562Z,21.20
2018-12-02T17:08:43.554Z,21.30
2018-12-02T17:11:13.193Z,21.40
2018-12-02T17:13:41.002Z,21.40
2018-12-02T17:16:09.690Z,21.40
2018-12-02T17:18:38.411Z,21.30
2018-12-02T17:21:07.436Z,21.30
2018-12-02T17:23:36.092Z,21.30
2018-12-02T17:26:04.888Z,21.20
2018-12-02T17:28:33.586Z,21.20
2018-12-02T17:31:05.950Z,21.20
2018-12-02T17:33:34.655Z,21.20
2018-12-02T17:36:03.399Z,21.20
2018-12-02T17:38:32.167Z,21.20
2018-12-02T17:41:00.924Z,21.20
2018-12-02T17:43:29.592Z,21.20
2018-12-02T17:45:58.420Z,21.20
2018-12-02T17:48:27.121Z,21.10
2018-12-02T17:50:55.827Z,21.10
2018-12-02T17:53:24.516Z,21.10
2018-12-02T17:55:53.329Z,21.10
2018-12-02T17:58:22.197Z,21.20
2018-12-02T18:00:50.921Z,21.20
2018-12-02T18:03:22.274Z,21.20
2018-12-02T18:05:51.018Z,21.20
2018-12-02T18:08:19.715Z,21.20
2018-12-02T18:13:16.884Z,21.20
2018-12-02T18:18:14.491Z,21.20
2018-12-02T18:20:43.142Z,21.20
2018-12-02T18:23:11.854Z,21.20
2018-12-02T18:25:40.522Z,21.10
2018-12-02T18:28:09.207Z,21.10
2018-12-02T18:30:37.912Z,21.10
2018-12-02T18:33:06.692Z,21.20
2018-12-02T18:35:43.845Z,21.20
2018-12-02T18:38:15.251Z,21.20
2018-12-02T18:40:48.269Z,21.30
2018-12-02T18:43:16.983Z,21.30
2018-12-02T18:45:47.966Z,21.30
2018-12-02T18:48:16.841Z,21.30
2018-12-02T18:50:45.530Z,21.40
2018-12-02T18:53:14.315Z,21.40
2018-12-02T18:55:43.397Z,21.40
2018-12-02T18:58:12.492Z,21.40
2018-12-02T19:00:46.574Z,21.40
2018-12-02T19:03:16.583Z,21.40
2018-12-02T19:05:45.578Z,21.40
2018-12-02T19:08:14.251Z,21.50
2018-12-02T19:10:43.724Z,21.50
2018-12-02T19:13:12.405Z,21.50
2018-12-02T19:15:41.125Z,21.50
2018-12-02T19:18:09.824Z,21.50
2018-12-02T19:20:38.587Z,21.50
2018-12-02T19:23:09.750Z,21.50
2018-12-02T19:25:38.538Z,21.50
2018-12-02T19:28:07.297Z,21.40
2018-12-02T19:30:35.998Z,21.40
2018-12-02T19:33:05.438Z,21.40
2018-12-02T19:35:35.408Z,21.40
2018-12-02T19:38:15.810Z,21.40
2018-12-02T19:40:44.483Z,21.40
2018-12-02T19:43:13.283Z,21.40
2018-12-02T19:45:41.961Z,21.40
2018-12-02T19:48:13.600Z,21.40
2018-12-02T19:50:42.415Z,21.40
2018-12-02T19:53:11.265Z,21.40
2018-12-02T19:55:39.990Z,21.40
2018-12-02T19:58:10.546Z,21.40
2018-12-02T20:00:41.469Z,21.50
2018-12-02T20:03:11.066Z,21.40
2018-12-02T20:05:40.138Z,21.40
2018-12-02T20:08:10.494Z,21.40
2018-12-02T20:10:40.153Z,21.40
2018-12-02T20:13:11.926Z,21.40
2018-12-02T20:15:45.887Z,21.40
2018-12-02T20:18:14.639Z,21.40
2018-12-02T20:20:48.281Z,21.30
2018-12-02T20:23:22.964Z,21.40
2018-12-02T20:25:52.986Z,21.30
2018-12-02T20:28:22.460Z,21.30
2018-12-02T20:30:51.136Z,21.30
2018-12-02T20:33:19.794Z,21.30
2018-12-02T20:35:48.490Z,21.30
2018-12-02T20:38:17.350Z,21.30
2018-12-02T20:40:46.023Z,21.30
2018-12-02T20:43:14.754Z,21.30
2018-12-02T20:45:43.438Z,21.30
2018-12-02T20:48:12.110Z,21.40
2018-12-02T20:50:40.751Z,21.40
2018-12-02T20:53:09.428Z,21.40
2018-12-02T20:55:38.186Z,21.30
2018-12-02T20:58:07.164Z,21.40
2018-12-02T21:00:36.334Z,21.30
2018-12-02T21:03:25.550Z,21.30
2018-12-02T21:05:57.377Z,21.30
2018-12-02T21:08:26.592Z,21.30
2018-12-02T21:10:55.659Z,21.30
2018-12-02T21:13:24.319Z,21.40
2018-12-02T21:15:53.028Z,21.40
2018-12-02T21:18:22.847Z,21.40
2018-12-02T21:20:51.650Z,21.40
2018-12-02T21:23:20.530Z,21.50
2018-12-02T21:25:50.639Z,21.50
2018-12-02T21:28:20.932Z,21.50
2018-12-02T21:30:49.701Z,21.50
2018-12-02T21:33:18.454Z,21.50
2018-12-02T21:35:47.357Z,21.50
2018-12-02T21:38:16.042Z,21.50
2018-12-02T21:40:44.703Z,21.40
2018-12-02T21:43:13.610Z,21.40
2018-12-02T21:48:12.530Z,21.40
2018-12-02T21:50:41.287Z,21.50
2018-12-02T21:53:10.153Z,21.50
2018-12-02T21:55:39.233Z,21.50
2018-12-02T21:58:13.401Z,21.50
2018-12-02T22:00:50.230Z,21.50
2018-12-02T22:03:18.927Z,21.50
2018-12-02T22:05:47.622Z,21.50
2018-12-02T22:08:16.326Z,21.50
2018-12-02T22:10:45.078Z,21.50
2018-12-02T22:13:13.736Z,21.50
2018-12-02T22:15:42.416Z,21.50
2018-12-02T22:18:11.113Z,21.50
2018-12-02T22:20:39.800Z,21.50
2018-12-02T22:23:08.679Z,21.50
2018-12-02T22:25:37.354Z,21.50
2018-12-02T22:28:08.178Z,21.50
2018-12-02T22:30:36.993Z,21.50
2018-12-02T22:33:06.557Z,21.50
2018-12-02T22:35:35.791Z,21.40
2018-12-02T22:38:04.601Z,21.40
2018-12-02T22:40:33.704Z,21.40
2018-12-02T22:43:02.371Z,21.40
2018-12-02T22:45:31.087Z,21.40
2018-12-02T22:47:59.816Z,21.40
2018-12-02T22:50:29.208Z,21.40
2018-12-02T23:00:37.265Z,21.40
2018-12-02T23:03:12.335Z,21.40
2018-12-02T23:05:52.434Z,21.40
2018-12-02T23:08:22.023Z,21.50
2018-12-02T23:10:50.918Z,21.50
2018-12-02T23:13:19.844Z,21.50
2018-12-02T23:15:48.604Z,21.50
2018-12-02T23:18:17.370Z,21.50
2018-12-02T23:20:46.130Z,21.50
2018-12-02T23:23:15.123Z,21.50
2018-12-02T23:25:44.151Z,21.50
2018-12-02T23:28:12.922Z,21.50
2018-12-02T23:30:41.711Z,21.50
2018-12-02T23:33:10.450Z,21.50
2018-12-02T23:35:39.186Z,21.50
2018-12-02T23:38:07.975Z,21.50
2018-12-02T23:40:36.690Z,21.40
2018-12-02T23:43:05.741Z,21.20
2018-12-02T23:45:34.830Z,21.10
2018-12-02T23:48:03.610Z,20.90
2018-12-02T23:50:32.358Z,20.80
2018-12-02T23:53:01.154Z,20.80
2018-12-02T23:55:29.964Z,20.80
2018-12-02T23:57:58.777Z,20.70
